sensor_id;sensor_type;location;lat;lon;timestamp;pressure;altitude;pressure_sealevel;temperature;humidity
36092;BME280;22147;52.388;13.390;2022-07-29T00:01:08;101402.19;;;14.41;75.68
36092;BME280;22147;52.388;13.390;2022-07-29T00:03:45;101392.72;;;14.33;75.62
36092;BME280;22147;52.388;13.390;2022-07-29T00:06:14;101395.53;;;14.33;75.13
36092;BME280;22147;52.388;13.390;2022-07-29T00:08:41;101396.34;;;14.34;75.61
36092;BME280;22147;52.388;13.390;2022-07-29T00:11:08;101397.47;;;14.33;76.03
36092;BME280;22147;52.388;13.390;2022-07-29T00:13:36;101393.53;;;14.34;75.67
36092;BME280;22147;52.388;13.390;2022-07-29T00:16:03;101395.22;;;14.26;77.82
36092;BME280;22147;52.388;13.390;2022-07-29T00:18:32;101391.63;;;14.25;76.63
36092;BME280;22147;52.388;13.390;2022-07-29T00:20:59;101380.75;;;14.24;76.49
36092;BME280;22147;52.388;13.390;2022-07-29T00:23:27;101378.66;;;14.21;76.89
36092;BME280;22147;52.388;13.390;2022-07-29T00:25:56;101381.78;;;14.19;77.07
36092;BME280;22147;52.388;13.390;2022-07-29T00:28:23;101383.44;;;14.20;76.73
36092;BME280;22147;52.388;13.390;2022-07-29T00:30:50;101383.06;;;14.22;77.28
36092;BME280;22147;52.388;13.390;2022-07-29T00:33:17;101387.19;;;14.24;76.91
36092;BME280;22147;52.388;13.390;2022-07-29T00:35:44;101393.25;;;14.27;76.69
36092;BME280;22147;52.388;13.390;2022-07-29T00:38:14;101381.13;;;14.22;77.44
36092;BME280;22147;52.388;13.390;2022-07-29T00:40:44;101385.38;;;14.20;78.00
36092;BME280;22147;52.388;13.390;2022-07-29T00:43:13;101383.94;;;14.14;77.96
36092;BME280;22147;52.388;13.390;2022-07-29T00:45:42;101387.09;;;14.12;77.86
36092;BME280;22147;52.388;13.390;2022-07-29T00:48:09;101387.75;;;14.09;78.53
36092;BME280;22147;52.388;13.390;2022-07-29T00:50:37;101377.91;;;14.03;79.45
36092;BME280;22147;52.388;13.390;2022-07-29T00:53:07;101369.59;;;13.94;80.11
36092;BME280;22147;52.388;13.390;2022-07-29T00:55:35;101359.09;;;13.91;79.78
36092;BME280;22147;52.388;13.390;2022-07-29T00:58:03;101364.19;;;13.89;81.00
36092;BME280;22147;52.388;13.390;2022-07-29T01:00:30;101358.28;;;13.91;80.44
36092;BME280;22147;52.388;13.390;2022-07-29T01:02:58;101358.13;;;13.87;80.85
36092;BME280;22147;52.388;13.390;2022-07-29T01:05:27;101359.41;;;13.90;80.61
36092;BME280;22147;52.388;13.390;2022-07-29T01:08:17;101359.41;;;13.90;81.66
36092;BME280;22147;52.388;13.390;2022-07-29T01:10:46;101364.84;;;13.86;81.43
36092;BME280;22147;52.388;13.390;2022-07-29T01:13:16;101364.25;;;13.80;81.63
36092;BME280;22147;52.388;13.390;2022-07-29T01:15:54;101357.66;;;13.85;81.71
36092;BME280;22147;52.388;13.390;2022-07-29T01:18:34;101353.19;;;13.84;81.62
36092;BME280;22147;52.388;13.390;2022-07-29T01:21:50;101347.13;;;13.82;82.80
36092;BME280;22147;52.388;13.390;2022-07-29T01:30:05;101327.63;;;13.73;83.38
36092;BME280;22147;52.388;13.390;2022-07-29T01:32:38;101316.94;;;13.75;83.37
36092;BME280;22147;52.388;13.390;2022-07-29T01:35:24;101321.72;;;13.75;83.43
36092;BME280;22147;52.388;13.390;2022-07-29T01:38:08;101310.41;;;13.71;83.96
36092;BME280;22147;52.388;13.390;2022-07-29T01:40:58;101292.50;;;13.72;84.20
36092;BME280;22147;52.388;13.390;2022-07-29T01:43:45;101286.63;;;13.65;84.29
36092;BME280;22147;52.388;13.390;2022-07-29T01:46:35;101283.16;;;13.68;84.54
36092;BME280;22147;52.388;13.390;2022-07-29T01:49:21;101300.06;;;13.72;84.10
36092;BME280;22147;52.388;13.390;2022-07-29T01:52:15;101289.88;;;13.67;85.23
36092;BME280;22147;52.388;13.390;2022-07-29T01:55:04;101286.34;;;13.58;85.39
36092;BME280;22147;52.388;13.390;2022-07-29T01:57:43;101284.34;;;13.58;86.02
36092;BME280;22147;52.388;13.390;2022-07-29T02:00:14;101286.19;;;13.54;87.05
36092;BME280;22147;52.388;13.390;2022-07-29T02:02:47;101280.31;;;13.47;87.35
36092;BME280;22147;52.388;13.390;2022-07-29T02:05:21;101285.88;;;13.47;86.64
36092;BME280;22147;52.388;13.390;2022-07-29T02:07:53;101276.22;;;13.44;87.08
36092;BME280;22147;52.388;13.390;2022-07-29T02:10:30;101278.53;;;13.42;87.49
36092;BME280;22147;52.388;13.390;2022-07-29T02:13:02;101279.81;;;13.45;87.62
36092;BME280;22147;52.388;13.390;2022-07-29T02:15:34;101283.63;;;13.40;87.71
36092;BME280;22147;52.388;13.390;2022-07-29T02:18:19;101286.41;;;13.40;88.44
36092;BME280;22147;52.388;13.390;2022-07-29T02:20:54;101271.81;;;13.35;89.39
36092;BME280;22147;52.388;13.390;2022-07-29T02:23:26;101283.28;;;13.33;89.33
36092;BME280;22147;52.388;13.390;2022-07-29T02:25:57;101289.72;;;13.34;89.00
36092;BME280;22147;52.388;13.390;2022-07-29T02:28:29;101295.28;;;13.34;89.20
36092;BME280;22147;52.388;13.390;2022-07-29T02:31:02;101297.72;;;13.35;89.28
36092;BME280;22147;52.388;13.390;2022-07-29T02:33:32;101292.16;;;13.35;90.42
36092;BME280;22147;52.388;13.390;2022-07-29T02:36:02;101293.16;;;13.31;89.74
36092;BME280;22147;52.388;13.390;2022-07-29T02:38:31;101293.81;;;13.28;90.22
36092;BME280;22147;52.388;13.390;2022-07-29T02:41:30;101291.00;;;13.28;89.14
36092;BME280;22147;52.388;13.390;2022-07-29T02:44:10;101296.91;;;13.26;90.61
36092;BME280;22147;52.388;13.390;2022-07-29T02:46:50;101293.97;;;13.22;90.83
36092;BME280;22147;52.388;13.390;2022-07-29T02:49:47;101292.34;;;13.21;90.78
36092;BME280;22147;52.388;13.390;2022-07-29T02:58:38;101292.19;;;13.18;92.10
36092;BME280;22147;52.388;13.390;2022-07-29T03:01:20;101292.00;;;13.14;92.57
36092;BME280;22147;52.388;13.390;2022-07-29T03:03:53;101286.59;;;13.18;91.74
36092;BME280;22147;52.388;13.390;2022-07-29T03:06:26;101291.53;;;13.21;91.79
36092;BME280;22147;52.388;13.390;2022-07-29T03:09:07;101284.47;;;13.23;92.08
36092;BME280;22147;52.388;13.390;2022-07-29T03:11:41;101285.75;;;13.26;92.17
36092;BME280;22147;52.388;13.390;2022-07-29T03:14:18;101284.94;;;13.26;92.07
36092;BME280;22147;52.388;13.390;2022-07-29T03:16:49;101280.88;;;13.23;91.76
36092;BME280;22147;52.388;13.390;2022-07-29T03:19:19;101289.22;;;13.23;92.10
36092;BME280;22147;52.388;13.390;2022-07-29T03:21:47;101279.69;;;13.24;92.21
36092;BME280;22147;52.388;13.390;2022-07-29T03:24:33;101273.16;;;13.29;91.66
36092;BME280;22147;52.388;13.390;2022-07-29T03:27:03;101269.50;;;13.28;92.08
36092;BME280;22147;52.388;13.390;2022-07-29T03:29:32;101267.56;;;13.29;92.12
36092;BME280;22147;52.388;13.390;2022-07-29T03:32:05;101278.22;;;13.27;92.73
36092;BME280;22147;52.388;13.390;2022-07-29T03:34:36;101280.50;;;13.24;92.37
36092;BME280;22147;52.388;13.390;2022-07-29T03:37:06;101272.63;;;13.27;91.97
36092;BME280;22147;52.388;13.390;2022-07-29T03:39:40;101268.69;;;13.28;92.34
36092;BME280;22147;52.388;13.390;2022-07-29T03:42:15;101265.91;;;13.28;92.48
36092;BME280;22147;52.388;13.390;2022-07-29T03:44:47;101265.91;;;13.28;92.17
36092;BME280;22147;52.388;13.390;2022-07-29T03:47:23;101264.44;;;13.30;93.08
36092;BME280;22147;52.388;13.390;2022-07-29T03:50:15;101272.50;;;13.32;92.01
36092;BME280;22147;52.388;13.390;2022-07-29T03:52:43;101263.94;;;13.37;91.62
36092;BME280;22147;52.388;13.390;2022-07-29T03:55:12;101270.47;;;13.41;91.79
36092;BME280;22147;52.388;13.390;2022-07-29T03:57:41;101267.69;;;13.41;92.97
36092;BME280;22147;52.388;13.390;2022-07-29T04:00:12;101269.66;;;13.40;92.45
36092;BME280;22147;52.388;13.390;2022-07-29T04:02:40;101272.13;;;13.42;92.87
36092;BME280;22147;52.388;13.390;2022-07-29T04:05:14;101269.16;;;13.47;92.07
36092;BME280;22147;52.388;13.390;2022-07-29T04:07:46;101270.94;;;13.52;91.74
36092;BME280;22147;52.388;13.390;2022-07-29T04:10:16;101274.38;;;13.57;91.40
36092;BME280;22147;52.388;13.390;2022-07-29T04:12:59;101282.41;;;13.59;90.98
36092;BME280;22147;52.388;13.390;2022-07-29T04:15:26;101283.00;;;13.64;91.00
36092;BME280;22147;52.388;13.390;2022-07-29T04:17:58;101278.25;;;13.65;91.29
36092;BME280;22147;52.388;13.390;2022-07-29T04:20:25;101280.72;;;13.67;92.24
36092;BME280;22147;52.388;13.390;2022-07-29T04:22:52;101275.13;;;13.67;92.52
36092;BME280;22147;52.388;13.390;2022-07-29T04:25:19;101275.28;;;13.70;92.25
36092;BME280;22147;52.388;13.390;2022-07-29T04:27:46;101267.38;;;13.72;92.30
36092;BME280;22147;52.388;13.390;2022-07-29T04:30:31;101269.22;;;13.68;92.90
36092;BME280;22147;52.388;13.390;2022-07-29T04:33:02;101275.44;;;13.74;91.61
36092;BME280;22147;52.388;13.390;2022-07-29T04:35:34;101276.84;;;13.80;92.29
36092;BME280;22147;52.388;13.390;2022-07-29T04:38:11;101272.59;;;13.82;92.28
36092;BME280;22147;52.388;13.390;2022-07-29T04:40:41;101276.69;;;13.85;93.06
36092;BME280;22147;52.388;13.390;2022-07-29T04:43:08;101275.66;;;13.90;92.04
36092;BME280;22147;52.388;13.390;2022-07-29T04:45:37;101269.53;;;13.96;92.86
36092;BME280;22147;52.388;13.390;2022-07-29T04:48:04;101280.88;;;14.00;90.80
36092;BME280;22147;52.388;13.390;2022-07-29T04:50:32;101280.31;;;14.07;91.78
36092;BME280;22147;52.388;13.390;2022-07-29T04:52:59;101280.47;;;14.10;90.21
36092;BME280;22147;52.388;13.390;2022-07-29T04:55:26;101277.94;;;14.17;89.66
36092;BME280;22147;52.388;13.390;2022-07-29T04:57:53;101280.69;;;14.26;88.79
36092;BME280;22147;52.388;13.390;2022-07-29T05:00:20;101282.44;;;14.31;88.92
36092;BME280;22147;52.388;13.390;2022-07-29T05:02:57;101280.75;;;14.38;88.00
36092;BME280;22147;52.388;13.390;2022-07-29T05:05:24;101293.16;;;14.50;88.56
36092;BME280;22147;52.388;13.390;2022-07-29T05:07:51;101285.91;;;14.57;87.87
36092;BME280;22147;52.388;13.390;2022-07-29T05:10:19;101289.44;;;14.66;86.66
36092;BME280;22147;52.388;13.390;2022-07-29T05:12:46;101278.06;;;14.72;85.87
36092;BME280;22147;52.388;13.390;2022-07-29T05:15:14;101278.84;;;14.72;87.55
36092;BME280;22147;52.388;13.390;2022-07-29T05:17:41;101279.91;;;14.68;87.07
36092;BME280;22147;52.388;13.390;2022-07-29T05:20:09;101279.66;;;14.73;86.43
36092;BME280;22147;52.388;13.390;2022-07-29T05:22:36;101278.38;;;14.70;86.24
36092;BME280;22147;52.388;13.390;2022-07-29T05:25:04;101272.53;;;14.63;87.05
36092;BME280;22147;52.388;13.390;2022-07-29T05:27:35;101271.50;;;14.68;86.36
36092;BME280;22147;52.388;13.390;2022-07-29T05:30:04;101273.34;;;14.63;85.48
36092;BME280;22147;52.388;13.390;2022-07-29T05:32:31;101273.75;;;14.74;86.57
36092;BME280;22147;52.388;13.390;2022-07-29T05:34:58;101280.91;;;14.84;85.73
36092;BME280;22147;52.388;13.390;2022-07-29T05:37:25;101278.81;;;14.93;84.26
36092;BME280;22147;52.388;13.390;2022-07-29T05:39:52;101277.69;;;15.06;83.03
36092;BME280;22147;52.388;13.390;2022-07-29T05:42:24;101270.97;;;15.20;83.70
36092;BME280;22147;52.388;13.390;2022-07-29T05:44:53;101277.41;;;15.33;82.69
36092;BME280;22147;52.388;13.390;2022-07-29T05:47:20;101267.63;;;15.39;84.20
36092;BME280;22147;52.388;13.390;2022-07-29T05:49:47;101276.88;;;15.52;81.52
36092;BME280;22147;52.388;13.390;2022-07-29T05:52:15;101274.63;;;15.57;80.56
36092;BME280;22147;52.388;13.390;2022-07-29T05:54:43;101270.47;;;15.76;80.70
36092;BME280;22147;52.388;13.390;2022-07-29T05:57:19;101268.47;;;15.88;79.67
36092;BME280;22147;52.388;13.390;2022-07-29T05:59:49;101271.41;;;15.92;77.82
36092;BME280;22147;52.388;13.390;2022-07-29T06:02:17;101269.00;;;16.19;76.41
36092;BME280;22147;52.388;13.390;2022-07-29T06:04:45;101272.22;;;16.45;77.93
36092;BME280;22147;52.388;13.390;2022-07-29T06:07:12;101267.59;;;16.65;74.42
36092;BME280;22147;52.388;13.390;2022-07-29T06:09:39;101269.09;;;16.75;73.35
36092;BME280;22147;52.388;13.390;2022-07-29T06:12:08;101265.94;;;16.77;71.69
36092;BME280;22147;52.388;13.390;2022-07-29T06:14:38;101267.88;;;16.88;73.13
36092;BME280;22147;52.388;13.390;2022-07-29T06:17:05;101274.91;;;17.11;72.23
36092;BME280;22147;52.388;13.390;2022-07-29T06:19:35;101270.59;;;17.45;72.02
36092;BME280;22147;52.388;13.390;2022-07-29T06:22:03;101266.16;;;17.92;68.98
36092;BME280;22147;52.388;13.390;2022-07-29T06:24:31;101259.47;;;18.16;68.34
36092;BME280;22147;52.388;13.390;2022-07-29T06:26:58;101261.22;;;18.04;66.50
36092;BME280;22147;52.388;13.390;2022-07-29T06:29:25;101262.41;;;18.03;66.02
36092;BME280;22147;52.388;13.390;2022-07-29T06:31:52;101270.22;;;17.94;66.91
36092;BME280;22147;52.388;13.390;2022-07-29T06:34:19;101275.47;;;17.96;67.04
36092;BME280;22147;52.388;13.390;2022-07-29T06:36:46;101272.47;;;17.88;67.87
36092;BME280;22147;52.388;13.390;2022-07-29T06:39:14;101260.72;;;17.83;66.89
36092;BME280;22147;52.388;13.390;2022-07-29T06:41:41;101267.25;;;17.87;66.99
36092;BME280;22147;52.388;13.390;2022-07-29T06:44:11;101266.78;;;17.85;67.13
36092;BME280;22147;52.388;13.390;2022-07-29T06:46:38;101272.88;;;17.87;67.07
36092;BME280;22147;52.388;13.390;2022-07-29T06:49:05;101269.25;;;17.86;65.82
36092;BME280;22147;52.388;13.390;2022-07-29T06:51:33;101274.56;;;17.92;66.73
36092;BME280;22147;52.388;13.390;2022-07-29T06:54:00;101275.84;;;17.94;65.90
36092;BME280;22147;52.388;13.390;2022-07-29T06:56:34;101279.53;;;17.98;65.45
36092;BME280;22147;52.388;13.390;2022-07-29T06:59:11;101278.97;;;18.08;64.11
36092;BME280;22147;52.388;13.390;2022-07-29T07:01:42;101285.41;;;18.09;65.76
36092;BME280;22147;52.388;13.390;2022-07-29T07:04:11;101280.13;;;18.23;65.21
36092;BME280;22147;52.388;13.390;2022-07-29T07:06:40;101291.69;;;18.38;66.31
36092;BME280;22147;52.388;13.390;2022-07-29T07:09:07;101294.28;;;18.46;64.87
36092;BME280;22147;52.388;13.390;2022-07-29T07:11:35;101288.88;;;18.57;64.71
36092;BME280;22147;52.388;13.390;2022-07-29T07:14:02;101287.09;;;18.68;63.17
36092;BME280;22147;52.388;13.390;2022-07-29T07:16:30;101285.88;;;18.85;63.26
36092;BME280;22147;52.388;13.390;2022-07-29T07:18:59;101284.31;;;18.88;65.02
36092;BME280;22147;52.388;13.390;2022-07-29T07:21:26;101276.38;;;18.94;63.46
36092;BME280;22147;52.388;13.390;2022-07-29T07:23:56;101282.22;;;19.04;62.78
36092;BME280;22147;52.388;13.390;2022-07-29T07:26:24;101278.50;;;19.43;62.46
36092;BME280;22147;52.388;13.390;2022-07-29T07:28:51;101273.50;;;19.79;61.16
36092;BME280;22147;52.388;13.390;2022-07-29T07:31:19;101275.91;;;20.03;58.21
36092;BME280;22147;52.388;13.390;2022-07-29T07:33:46;101275.13;;;20.06;60.76
36092;BME280;22147;52.388;13.390;2022-07-29T07:36:13;101269.75;;;19.98;57.79
36092;BME280;22147;52.388;13.390;2022-07-29T07:38:40;101264.41;;;20.16;57.58
36092;BME280;22147;52.388;13.390;2022-07-29T07:41:08;101269.91;;;20.65;57.32
36092;BME280;22147;52.388;13.390;2022-07-29T07:43:35;101275.91;;;21.31;57.17
36092;BME280;22147;52.388;13.390;2022-07-29T07:46:02;101268.16;;;21.66;53.67
36092;BME280;22147;52.388;13.390;2022-07-29T07:48:29;101269.84;;;21.78;55.75
36092;BME280;22147;52.388;13.390;2022-07-29T07:50:56;101266.28;;;21.88;52.49
36092;BME280;22147;52.388;13.390;2022-07-29T07:53:24;101264.59;;;21.80;53.28
36092;BME280;22147;52.388;13.390;2022-07-29T07:55:51;101259.91;;;21.98;53.67
36092;BME280;22147;52.388;13.390;2022-07-29T07:58:36;101255.47;;;21.97;51.44
36092;BME280;22147;52.388;13.390;2022-07-29T08:01:04;101260.78;;;21.54;51.25
36092;BME280;22147;52.388;13.390;2022-07-29T08:03:32;101263.00;;;21.34;52.65
36092;BME280;22147;52.388;13.390;2022-07-29T08:06:00;101260.19;;;21.38;56.65
36092;BME280;22147;52.388;13.390;2022-07-29T08:08:27;101256.94;;;21.35;53.21
36092;BME280;22147;52.388;13.390;2022-07-29T08:10:54;101252.38;;;21.61;55.03
36092;BME280;22147;52.388;13.390;2022-07-29T08:13:29;101256.53;;;21.78;52.74
36092;BME280;22147;52.388;13.390;2022-07-29T08:15:58;101268.00;;;22.00;51.99
36092;BME280;22147;52.388;13.390;2022-07-29T08:18:40;101269.94;;;22.51;49.91
36092;BME280;22147;52.388;13.390;2022-07-29T08:21:08;101262.00;;;22.92;48.18
36092;BME280;22147;52.388;13.390;2022-07-29T08:23:36;101260.84;;;23.15;47.40
36092;BME280;22147;52.388;13.390;2022-07-29T08:26:14;101258.81;;;23.15;48.44
36092;BME280;22147;52.388;13.390;2022-07-29T08:28:45;101249.44;;;22.90;47.38
36092;BME280;22147;52.388;13.390;2022-07-29T08:31:16;101252.53;;;22.49;47.31
36092;BME280;22147;52.388;13.390;2022-07-29T08:33:44;101250.03;;;22.29;47.53
36092;BME280;22147;52.388;13.390;2022-07-29T08:36:11;101250.66;;;22.05;49.43
36092;BME280;22147;52.388;13.390;2022-07-29T08:38:39;101250.28;;;22.10;49.12
36092;BME280;22147;52.388;13.390;2022-07-29T08:41:07;101244.16;;;22.01;51.21
36092;BME280;22147;52.388;13.390;2022-07-29T08:43:34;101245.38;;;22.00;51.44
36092;BME280;22147;52.388;13.390;2022-07-29T08:46:04;101237.75;;;22.11;49.66
36092;BME280;22147;52.388;13.390;2022-07-29T08:48:33;101238.50;;;22.01;48.37
36092;BME280;22147;52.388;13.390;2022-07-29T08:51:02;101239.25;;;21.87;50.41
36092;BME280;22147;52.388;13.390;2022-07-29T08:53:32;101239.72;;;22.00;50.40
36092;BME280;22147;52.388;13.390;2022-07-29T08:56:01;101245.06;;;22.12;53.83
36092;BME280;22147;52.388;13.390;2022-07-29T08:58:33;101240.13;;;22.02;48.71
36092;BME280;22147;52.388;13.390;2022-07-29T09:01:04;101239.03;;;22.21;49.11
36092;BME280;22147;52.388;13.390;2022-07-29T09:03:37;101244.06;;;22.56;48.51
36092;BME280;22147;52.388;13.390;2022-07-29T09:06:06;101242.19;;;23.00;47.93
36092;BME280;22147;52.388;13.390;2022-07-29T09:08:34;101238.63;;;23.31;46.63
36092;BME280;22147;52.388;13.390;2022-07-29T09:11:02;101235.78;;;23.53;44.35
36092;BME280;22147;52.388;13.390;2022-07-29T09:13:31;101232.94;;;23.64;45.41
36092;BME280;22147;52.388;13.390;2022-07-29T09:15:58;101245.91;;;23.93;44.97
36092;BME280;22147;52.388;13.390;2022-07-29T09:18:37;101232.81;;;24.35;43.03
36092;BME280;22147;52.388;13.390;2022-07-29T09:21:13;101231.13;;;24.60;44.38
36092;BME280;22147;52.388;13.390;2022-07-29T09:24:06;101223.16;;;25.03;43.96
36092;BME280;22147;52.388;13.390;2022-07-29T09:26:42;101219.69;;;25.41;41.54
36092;BME280;22147;52.388;13.390;2022-07-29T09:29:22;101221.47;;;25.65;39.29
36092;BME280;22147;52.388;13.390;2022-07-29T09:31:55;101216.81;;;25.89;39.44
36092;BME280;22147;52.388;13.390;2022-07-29T09:34:28;101228.41;;;25.64;36.95
36092;BME280;22147;52.388;13.390;2022-07-29T09:36:58;101219.81;;;25.23;38.09
36092;BME280;22147;52.388;13.390;2022-07-29T09:39:37;101212.13;;;25.16;38.49
36092;BME280;22147;52.388;13.390;2022-07-29T09:42:13;101213.63;;;25.31;36.94
36092;BME280;22147;52.388;13.390;2022-07-29T09:44:54;101217.88;;;25.02;36.18
36092;BME280;22147;52.388;13.390;2022-07-29T09:47:22;101206.84;;;25.14;35.85
36092;BME280;22147;52.388;13.390;2022-07-29T09:49:58;101203.28;;;25.03;36.69
36092;BME280;22147;52.388;13.390;2022-07-29T09:52:29;101208.06;;;25.17;37.01
36092;BME280;22147;52.388;13.390;2022-07-29T09:55:07;101210.97;;;25.58;35.24
36092;BME280;22147;52.388;13.390;2022-07-29T09:57:45;101203.72;;;25.54;36.38
36092;BME280;22147;52.388;13.390;2022-07-29T10:00:17;101196.94;;;25.82;35.57
36092;BME280;22147;52.388;13.390;2022-07-29T10:02:47;101198.59;;;25.79;35.77
36092;BME280;22147;52.388;13.390;2022-07-29T10:05:26;101198.59;;;25.76;34.98
36092;BME280;22147;52.388;13.390;2022-07-29T10:08:02;101205.97;;;25.73;37.59
36092;BME280;22147;52.388;13.390;2022-07-29T10:10:34;101199.56;;;25.62;34.67
36092;BME280;22147;52.388;13.390;2022-07-29T10:13:13;101203.31;;;25.52;34.71
36092;BME280;22147;52.388;13.390;2022-07-29T10:15:44;101202.13;;;25.49;36.09
36092;BME280;22147;52.388;13.390;2022-07-29T10:18:14;101200.56;;;25.45;36.19
36092;BME280;22147;52.388;13.390;2022-07-29T10:20:44;101203.41;;;25.45;35.58
36092;BME280;22147;52.388;13.390;2022-07-29T10:23:11;101202.72;;;25.30;35.95
36092;BME280;22147;52.388;13.390;2022-07-29T10:25:39;101188.66;;;25.05;35.49
36092;BME280;22147;52.388;13.390;2022-07-29T10:28:12;101191.53;;;24.97;35.59
36092;BME280;22147;52.388;13.390;2022-07-29T10:30:45;101193.41;;;25.18;34.58
36092;BME280;22147;52.388;13.390;2022-07-29T10:33:51;101197.75;;;25.37;35.48
36092;BME280;22147;52.388;13.390;2022-07-29T10:40:17;101194.16;;;26.16;34.85
36092;BME280;22147;52.388;13.390;2022-07-29T10:43:36;101195.28;;;26.57;34.30
36092;BME280;22147;52.388;13.390;2022-07-29T10:46:10;101185.94;;;26.56;34.58
36092;BME280;22147;52.388;13.390;2022-07-29T10:49:17;101190.00;;;26.55;34.40
36092;BME280;22147;52.388;13.390;2022-07-29T10:51:55;101185.56;;;26.20;35.49
36092;BME280;22147;52.388;13.390;2022-07-29T10:54:47;101186.41;;;26.17;35.57
36092;BME280;22147;52.388;13.390;2022-07-29T10:57:29;101189.47;;;26.33;34.87
36092;BME280;22147;52.388;13.390;2022-07-29T11:00:26;101187.88;;;26.63;35.07
36092;BME280;22147;52.388;13.390;2022-07-29T11:02:56;101181.81;;;26.61;36.05
36092;BME280;22147;52.388;13.390;2022-07-29T11:05:25;101178.06;;;26.68;35.51
36092;BME280;22147;52.388;13.390;2022-07-29T11:10:48;101173.38;;;26.81;37.33
36092;BME280;22147;52.388;13.390;2022-07-29T11:16:16;101163.88;;;26.91;36.64
36092;BME280;22147;52.388;13.390;2022-07-29T11:19:19;101178.59;;;26.86;37.48
36092;BME280;22147;52.388;13.390;2022-07-29T11:21:56;101165.16;;;26.59;37.82
36092;BME280;22147;52.388;13.390;2022-07-29T11:24:29;101170.84;;;26.56;38.26
36092;BME280;22147;52.388;13.390;2022-07-29T11:27:19;101165.59;;;26.54;38.14
36092;BME280;22147;52.388;13.390;2022-07-29T11:29:51;101161.13;;;26.53;37.11
36092;BME280;22147;52.388;13.390;2022-07-29T11:32:42;101158.19;;;26.60;40.01
36092;BME280;22147;52.388;13.390;2022-07-29T11:35:22;101169.59;;;26.60;38.10
36092;BME280;22147;52.388;13.390;2022-07-29T11:41:26;101160.97;;;26.68;38.53
36092;BME280;22147;52.388;13.390;2022-07-29T11:44:03;101157.31;;;26.67;37.56
36092;BME280;22147;52.388;13.390;2022-07-29T11:46:49;101156.56;;;26.63;37.61
36092;BME280;22147;52.388;13.390;2022-07-29T11:49:26;101154.63;;;26.56;37.49
36092;BME280;22147;52.388;13.390;2022-07-29T11:52:13;101149.72;;;26.57;37.75
36092;BME280;22147;52.388;13.390;2022-07-29T11:54:43;101149.94;;;26.08;39.16
36092;BME280;22147;52.388;13.390;2022-07-29T11:57:31;101140.69;;;26.00;40.93
36092;BME280;22147;52.388;13.390;2022-07-29T12:00:08;101136.66;;;26.29;41.13
36092;BME280;22147;52.388;13.390;2022-07-29T12:02:40;101141.84;;;26.37;38.99
36092;BME280;22147;52.388;13.390;2022-07-29T12:05:14;101144.38;;;26.28;40.16
36092;BME280;22147;52.388;13.390;2022-07-29T12:08:14;101139.59;;;25.91;39.29
36092;BME280;22147;52.388;13.390;2022-07-29T12:10:49;101144.81;;;25.96;39.17
36092;BME280;22147;52.388;13.390;2022-07-29T12:13:20;101143.94;;;25.99;39.32
36092;BME280;22147;52.388;13.390;2022-07-29T12:16:03;101136.59;;;26.32;37.52
36092;BME280;22147;52.388;13.390;2022-07-29T12:18:31;101132.69;;;26.50;38.62
36092;BME280;22147;52.388;13.390;2022-07-29T12:21:01;101130.19;;;26.86;36.77
36092;BME280;22147;52.388;13.390;2022-07-29T12:23:34;101124.97;;;27.05;35.55
36092;BME280;22147;52.388;13.390;2022-07-29T12:26:06;101127.03;;;27.04;36.39
36092;BME280;22147;52.388;13.390;2022-07-29T12:28:38;101118.31;;;26.88;36.68
36092;BME280;22147;52.388;13.390;2022-07-29T12:31:05;101121.31;;;27.04;36.57
36092;BME280;22147;52.388;13.390;2022-07-29T12:34:00;101121.44;;;26.97;36.80
36092;BME280;22147;52.388;13.390;2022-07-29T12:36:28;101115.84;;;26.90;37.94
36092;BME280;22147;52.388;13.390;2022-07-29T12:38:55;101115.22;;;26.78;37.27
36092;BME280;22147;52.388;13.390;2022-07-29T12:41:23;101116.75;;;26.56;37.50
36092;BME280;22147;52.388;13.390;2022-07-29T12:43:54;101111.06;;;26.83;38.26
36092;BME280;22147;52.388;13.390;2022-07-29T12:46:22;101118.34;;;27.11;37.75
36092;BME280;22147;52.388;13.390;2022-07-29T12:48:54;101109.72;;;27.15;37.58
36092;BME280;22147;52.388;13.390;2022-07-29T12:51:35;101102.03;;;27.39;39.11
36092;BME280;22147;52.388;13.390;2022-07-29T12:54:10;101118.44;;;27.31;37.20
36092;BME280;22147;52.388;13.390;2022-07-29T12:56:43;101118.28;;;27.15;37.29
36092;BME280;22147;52.388;13.390;2022-07-29T12:59:22;101112.50;;;27.22;36.57
36092;BME280;22147;52.388;13.390;2022-07-29T13:01:51;101110.53;;;27.15;38.67
36092;BME280;22147;52.388;13.390;2022-07-29T13:04:31;101111.25;;;27.23;39.48
36092;BME280;22147;52.388;13.390;2022-07-29T13:07:05;101106.34;;;27.24;37.89
36092;BME280;22147;52.388;13.390;2022-07-29T13:09:42;101108.56;;;27.12;37.96
36092;BME280;22147;52.388;13.390;2022-07-29T13:12:14;101090.88;;;27.25;38.37
36092;BME280;22147;52.388;13.390;2022-07-29T13:14:46;101099.03;;;27.66;37.57
36092;BME280;22147;52.388;13.390;2022-07-29T13:17:21;101088.47;;;27.87;36.38
36092;BME280;22147;52.388;13.390;2022-07-29T13:20:08;101094.00;;;27.54;36.86
36092;BME280;22147;52.388;13.390;2022-07-29T13:22:40;101089.88;;;27.75;36.60
36092;BME280;22147;52.388;13.390;2022-07-29T13:25:11;101091.00;;;27.61;34.55
36092;BME280;22147;52.388;13.390;2022-07-29T13:27:39;101086.47;;;27.64;36.38
36092;BME280;22147;52.388;13.390;2022-07-29T13:30:09;101066.91;;;27.62;35.59
36092;BME280;22147;52.388;13.390;2022-07-29T13:32:37;101076.50;;;27.72;35.85
36092;BME280;22147;52.388;13.390;2022-07-29T13:35:08;101065.84;;;27.96;37.59